createdAt,value
2018-03-06T00:02:22.050Z,18.57
2018-03-06T00:04:49.538Z,18.80
2018-03-06T00:07:17.027Z,19.53
2018-03-06T00:09:44.522Z,18.90
2018-03-06T00:12:12.042Z,19.30
2018-03-06T00:14:40.294Z,18.83
2018-03-06T00:17:07.801Z,18.73
2018-03-06T00:19:35.294Z,19.23
2018-03-06T00:22:02.806Z,19.70
2018-03-06T00:24:31.064Z,21.10
2018-03-06T00:26:59.351Z,20.50
2018-03-06T00:29:26.858Z,18.10
2018-03-06T00:31:54.366Z,21.27
2018-03-06T00:34:21.862Z,19.60
2018-03-06T00:36:49.375Z,21.43
2018-03-06T00:39:17.641Z,20.20
2018-03-06T00:41:45.158Z,21.87
2018-03-06T00:44:12.645Z,19.90
2018-03-06T00:46:40.164Z,21.60
2018-03-06T00:49:07.651Z,20.50
2018-03-06T00:51:35.148Z,21.93
2018-03-06T00:54:03.398Z,21.50
2018-03-06T00:56:30.893Z,21.00
2018-03-06T00:58:59.164Z,21.00
2018-03-06T01:01:26.651Z,21.07
2018-03-06T01:03:54.171Z,21.65
2018-03-06T01:06:22.428Z,21.23
2018-03-06T01:08:50.711Z,19.70
2018-03-06T01:11:18.965Z,22.60
2018-03-06T01:13:46.473Z,21.47
2018-03-06T01:16:13.962Z,21.80
2018-03-06T01:18:41.491Z,22.53
2018-03-06T01:21:08.963Z,21.60
2018-03-06T01:23:36.477Z,20.90
2018-03-06T01:26:04.750Z,22.03
2018-03-06T01:28:32.306Z,22.10
2018-03-06T01:30:59.790Z,21.43
2018-03-06T01:33:28.071Z,20.53
2018-03-06T01:38:48.479Z,21.47
2018-03-06T01:41:15.969Z,22.33
2018-03-06T01:43:43.473Z,22.50
2018-03-06T01:46:10.944Z,21.65
2018-03-06T01:48:39.217Z,23.10
2018-03-06T01:51:07.482Z,23.20
2018-03-06T01:53:34.995Z,22.07
2018-03-06T01:56:02.496Z,23.13
2018-03-06T01:58:30.061Z,23.50
2018-03-06T02:00:57.541Z,24.90
2018-03-06T02:03:25.041Z,23.87
2018-03-06T02:05:52.518Z,25.73
2018-03-06T02:08:20.028Z,22.33
2018-03-06T02:10:47.530Z,24.67
2018-03-06T02:13:15.042Z,27.03
2018-03-06T02:15:42.530Z,26.40
2018-03-06T02:18:10.018Z,27.77
2018-03-06T02:20:37.609Z,32.97
2018-03-06T02:23:05.100Z,33.93
2018-03-06T02:25:36.341Z,32.70
2018-03-06T02:28:03.844Z,26.03
2018-03-06T02:30:32.117Z,27.67
2018-03-06T02:32:59.611Z,28.00
2018-03-06T02:35:27.127Z,31.37
2018-03-06T02:37:54.626Z,31.07
2018-03-06T02:40:22.181Z,29.65
2018-03-06T02:42:49.670Z,29.50
2018-03-06T02:45:17.180Z,30.90
2018-03-06T02:47:45.466Z,34.20
2018-03-06T02:50:13.735Z,33.27
2018-03-06T02:52:41.989Z,33.47
2018-03-06T02:55:09.496Z,29.40
2018-03-06T02:57:36.976Z,29.13
2018-03-06T03:00:04.491Z,28.60
2018-03-06T03:02:32.760Z,30.87
2018-03-06T03:05:01.041Z,31.63
2018-03-06T03:07:29.293Z,29.27
2018-03-06T03:09:56.785Z,29.83
2018-03-06T03:12:24.279Z,30.08
2018-03-06T03:14:51.795Z,30.07
2018-03-06T03:17:20.052Z,27.77
2018-03-06T03:19:47.559Z,30.70
2018-03-06T03:22:15.063Z,29.60
2018-03-06T03:24:42.554Z,27.58
2018-03-06T03:27:10.058Z,27.80
2018-03-06T03:29:37.555Z,28.53
2018-03-06T03:32:05.817Z,29.93
2018-03-06T03:34:34.150Z,28.20
2018-03-06T03:37:01.652Z,28.63
2018-03-06T03:39:29.157Z,29.03
2018-03-06T03:41:56.657Z,27.10
2018-03-06T03:44:24.144Z,28.40
2018-03-06T03:46:52.411Z,30.03
2018-03-06T03:49:20.666Z,29.67
2018-03-06T03:51:48.171Z,28.33
2018-03-06T03:54:15.666Z,26.27
2018-03-06T03:56:44.080Z,27.10
2018-03-06T03:59:12.341Z,25.87
2018-03-06T04:01:41.344Z,28.10
2018-03-06T04:04:08.837Z,27.43
2018-03-06T04:06:36.332Z,27.90
2018-03-06T04:09:03.834Z,27.50
2018-03-06T04:11:32.127Z,27.70
2018-03-06T04:13:59.613Z,27.43
2018-03-06T04:16:27.142Z,28.03
2018-03-06T04:18:54.656Z,24.95
2018-03-06T04:21:22.161Z,28.30
2018-03-06T04:23:50.017Z,28.60
2018-03-06T04:26:18.281Z,27.10
2018-03-06T04:28:46.534Z,27.03
2018-03-06T04:31:14.046Z,28.30
2018-03-06T04:33:41.535Z,28.67
2018-03-06T04:36:09.033Z,28.30
2018-03-06T04:38:37.311Z,27.40
2018-03-06T04:41:05.582Z,29.10
2018-03-06T04:43:33.929Z,28.07
2018-03-06T04:46:01.412Z,29.50
2018-03-06T04:48:29.710Z,26.10
2018-03-06T04:50:58.895Z,27.67
2018-03-06T04:53:27.160Z,27.33
2018-03-06T04:55:54.658Z,28.03
2018-03-06T04:58:22.169Z,26.80
2018-03-06T05:00:49.682Z,26.00
2018-03-06T05:03:17.200Z,26.17
2018-03-06T05:05:45.472Z,26.70
2018-03-06T05:08:13.003Z,28.40
2018-03-06T05:10:40.492Z,31.13
2018-03-06T05:13:09.084Z,28.58
2018-03-06T05:15:37.338Z,30.30
2018-03-06T05:18:04.844Z,30.77
2018-03-06T05:20:32.350Z,31.43
2018-03-06T05:23:00.641Z,31.40
2018-03-06T05:25:28.224Z,36.20
2018-03-06T05:27:56.505Z,38.37
2018-03-06T05:30:24.022Z,36.57
2018-03-06T05:32:51.514Z,38.53
2018-03-06T05:35:20.103Z,35.80
2018-03-06T05:37:47.622Z,33.83
2018-03-06T05:40:15.109Z,35.10
2018-03-06T05:42:43.395Z,33.43
2018-03-06T05:45:10.901Z,34.67
2018-03-06T05:47:40.071Z,32.80
2018-03-06T05:50:07.566Z,32.57
2018-03-06T05:52:35.064Z,35.50
2018-03-06T05:55:03.316Z,36.53
2018-03-06T05:57:30.824Z,37.70
2018-03-06T05:59:58.324Z,33.70
2018-03-06T06:02:27.357Z,36.00
2018-03-06T06:04:56.616Z,34.57
2018-03-06T06:07:24.111Z,35.60
2018-03-06T06:09:52.383Z,32.40
2018-03-06T06:12:20.630Z,29.77
2018-03-06T06:14:48.126Z,31.17
2018-03-06T06:17:16.376Z,32.70
2018-03-06T06:19:43.874Z,29.23
2018-03-06T06:22:11.372Z,26.63
2018-03-06T06:24:38.862Z,29.43
2018-03-06T06:27:07.132Z,28.03
2018-03-06T06:29:35.640Z,29.27
2018-03-06T06:32:03.376Z,28.40
2018-03-06T06:34:30.856Z,29.80
2018-03-06T06:36:59.113Z,29.47
2018-03-06T06:39:32.269Z,32.22
2018-03-06T06:41:59.746Z,29.70
2018-03-06T06:44:27.245Z,31.00
2018-03-06T06:46:54.734Z,32.90
2018-03-06T06:49:22.222Z,34.60
2018-03-06T06:51:49.714Z,37.50
2018-03-06T06:54:17.958Z,36.23
2018-03-06T06:56:45.459Z,34.80
2018-03-06T06:59:12.956Z,38.90
2018-03-06T07:01:40.436Z,32.70
2018-03-06T07:04:07.924Z,34.65
2018-03-06T07:06:35.396Z,32.40
2018-03-06T07:09:02.885Z,31.30
2018-03-06T07:11:30.365Z,33.17
2018-03-06T07:13:57.870Z,34.75
2018-03-06T07:16:25.360Z,36.00
2018-03-06T07:18:52.829Z,36.83
2018-03-06T07:21:21.845Z,33.37
2018-03-06T07:23:50.094Z,31.80
2018-03-06T07:26:17.585Z,32.37
2018-03-06T07:28:45.838Z,31.43
2018-03-06T07:31:13.322Z,32.10
2018-03-06T07:33:41.598Z,31.57
2018-03-06T07:36:09.877Z,28.53
2018-03-06T07:38:38.126Z,30.67
2018-03-06T07:41:05.635Z,31.17
2018-03-06T07:43:33.106Z,31.93
2018-03-06T07:46:00.588Z,41.47
2018-03-06T07:48:28.087Z,32.10
2018-03-06T07:50:56.359Z,32.47
2018-03-06T07:53:24.605Z,31.03
2018-03-06T07:55:52.185Z,30.00
2018-03-06T07:58:19.681Z,30.98
2018-03-06T08:00:47.166Z,28.77
2018-03-06T08:03:14.669Z,28.80
2018-03-06T08:05:42.948Z,31.63
2018-03-06T08:08:11.237Z,30.97
2018-03-06T08:10:38.736Z,33.23
2018-03-06T08:13:06.208Z,35.90
2018-03-06T08:15:33.714Z,32.20
2018-03-06T08:18:01.204Z,33.60
2018-03-06T08:20:28.709Z,32.37
2018-03-06T08:22:56.981Z,34.70
2018-03-06T08:25:25.242Z,36.83
2018-03-06T08:27:52.719Z,37.50
2018-03-06T08:30:21.900Z,36.97
2018-03-06T08:32:49.372Z,37.17
2018-03-06T08:35:17.607Z,36.03
2018-03-06T08:37:45.097Z,36.60
2018-03-06T08:40:13.339Z,35.00
2018-03-06T08:42:40.827Z,34.27
2018-03-06T08:45:09.088Z,34.30
2018-03-06T08:47:36.577Z,34.43
2018-03-06T08:50:04.826Z,32.90
2018-03-06T08:52:32.329Z,32.65
2018-03-06T08:54:59.809Z,37.50
2018-03-06T08:57:27.292Z,36.90
2018-03-06T08:59:54.777Z,31.30
2018-03-06T09:02:23.036Z,34.23
2018-03-06T09:04:50.528Z,34.00
2018-03-06T09:07:18.790Z,34.77
2018-03-06T09:09:47.056Z,31.40
2018-03-06T09:12:14.568Z,33.10
2018-03-06T09:14:42.085Z,34.33
2018-03-06T09:17:10.358Z,35.03
2018-03-06T09:19:38.612Z,33.80
2018-03-06T09:22:06.103Z,34.50
2018-03-06T09:24:34.342Z,34.10
2018-03-06T09:27:01.852Z,33.10
2018-03-06T09:29:29.333Z,33.50
2018-03-06T09:31:56.840Z,32.07
2018-03-06T09:34:24.322Z,30.20
2018-03-06T09:36:51.830Z,32.80
2018-03-06T09:39:19.312Z,32.73
2018-03-06T09:41:47.551Z,31.37
2018-03-06T09:44:15.153Z,32.37
2018-03-06T09:46:43.389Z,34.00
2018-03-06T09:49:10.985Z,31.57
2018-03-06T09:51:39.242Z,31.80
2018-03-06T09:54:06.771Z,33.77
2018-03-06T09:56:34.260Z,33.30
2018-03-06T09:59:01.754Z,31.62
2018-03-06T10:01:29.242Z,33.80
2018-03-06T10:03:56.733Z,32.43
2018-03-06T10:06:24.225Z,32.10
2018-03-06T10:08:53.393Z,31.60
2018-03-06T10:11:20.864Z,30.10
2018-03-06T10:13:49.122Z,29.90
2018-03-06T10:16:16.613Z,33.17
2018-03-06T10:18:44.868Z,32.10
2018-03-06T10:21:12.346Z,33.27
2018-03-06T10:23:40.621Z,30.70
2018-03-06T10:26:08.862Z,30.17
2018-03-06T10:28:36.380Z,30.27
2018-03-06T10:31:03.898Z,30.30
2018-03-06T10:33:32.270Z,33.47
2018-03-06T10:35:59.749Z,31.07
2018-03-06T10:38:28.021Z,31.60
2018-03-06T10:40:56.283Z,31.53
2018-03-06T10:43:24.534Z,32.65
2018-03-06T10:45:52.004Z,31.80
2018-03-06T10:48:19.506Z,32.10
2018-03-06T10:50:46.971Z,33.07
2018-03-06T10:53:14.504Z,26.85
2018-03-06T10:55:42.762Z,29.40
2018-03-06T10:58:10.232Z,30.97
2018-03-06T11:00:44.288Z,28.33
2018-03-06T11:03:11.764Z,30.73
2018-03-06T11:05:39.265Z,29.07
2018-03-06T11:08:07.549Z,28.53
2018-03-06T11:10:35.808Z,28.47
2018-03-06T11:13:04.049Z,31.47
2018-03-06T11:15:31.539Z,32.70
2018-03-06T11:17:59.872Z,28.07
2018-03-06T11:20:27.369Z,31.00
2018-03-06T11:22:54.841Z,28.37
2018-03-06T11:25:24.032Z,28.10
2018-03-06T11:27:52.264Z,30.07
2018-03-06T11:30:19.759Z,29.70
2018-03-06T11:32:48.750Z,30.70
2018-03-06T11:35:16.276Z,27.30
2018-03-06T11:37:43.750Z,28.87
2018-03-06T11:40:11.254Z,28.53
2018-03-06T11:42:39.502Z,31.13
2018-03-06T11:45:07.008Z,29.10
2018-03-06T11:47:34.491Z,30.27
2018-03-06T11:50:01.973Z,28.10
2018-03-06T11:52:29.454Z,29.60
2018-03-06T11:54:57.717Z,31.67
2018-03-06T11:57:25.284Z,30.13
2018-03-06T11:59:53.542Z,34.50
2018-03-06T12:02:21.026Z,29.17
2018-03-06T12:04:49.276Z,31.83
2018-03-06T12:07:16.748Z,30.33
2018-03-06T12:09:45.006Z,29.70
2018-03-06T12:12:12.498Z,31.77
2018-03-06T12:14:40.759Z,33.37
2018-03-06T12:17:09.005Z,27.53
2018-03-06T12:19:36.485Z,24.80
2018-03-06T12:22:04.738Z,26.10
2018-03-06T12:24:32.226Z,22.53
2018-03-06T12:27:00.496Z,26.00
2018-03-06T12:29:27.970Z,28.40
2018-03-06T12:31:56.233Z,27.85
2018-03-06T12:34:24.478Z,26.33
2018-03-06T12:36:52.740Z,24.33
2018-03-06T12:39:20.243Z,26.20
2018-03-06T12:41:49.424Z,18.40
2018-03-06T12:44:16.907Z,20.70
2018-03-06T12:46:45.191Z,23.00
2018-03-06T12:49:12.673Z,25.80
2018-03-06T12:51:40.165Z,28.60
2018-03-06T12:54:07.642Z,28.10
2018-03-06T12:56:35.133Z,22.17
2018-03-06T12:59:02.625Z,19.07
2018-03-06T13:01:30.102Z,20.80
2018-03-06T13:03:58.498Z,20.97
2018-03-06T13:06:26.754Z,25.73
2018-03-06T13:08:54.243Z,24.90
2018-03-06T13:11:22.498Z,25.60
2018-03-06T13:13:49.983Z,25.03
2018-03-06T13:16:17.485Z,23.60
2018-03-06T13:18:44.990Z,25.07
2018-03-06T13:21:13.241Z,23.70
2018-03-06T13:23:40.733Z,23.60
2018-03-06T13:26:08.990Z,25.00
2018-03-06T13:28:37.228Z,21.53
2018-03-06T13:31:04.711Z,25.30
2018-03-06T13:33:32.198Z,28.90
2018-03-06T13:36:00.445Z,27.20
2018-03-06T13:38:27.950Z,30.17
2018-03-06T13:40:55.439Z,28.50
2018-03-06T13:43:22.942Z,26.70
2018-03-06T13:45:51.212Z,27.43
2018-03-06T13:48:19.486Z,28.33
2018-03-06T13:50:47.740Z,27.20
2018-03-06T13:53:15.239Z,27.70
2018-03-06T13:55:42.734Z,27.73
2018-03-06T13:58:10.229Z,28.10
2018-03-06T14:00:37.732Z,20.70
2018-03-06T14:03:05.256Z,18.97
2018-03-06T14:05:33.516Z,18.03
2018-03-06T14:08:01.007Z,17.57
2018-03-06T14:10:28.497Z,17.90
2018-03-06T14:12:55.989Z,19.93
2018-03-06T14:15:23.472Z,17.20
2018-03-06T14:17:51.730Z,17.13
2018-03-06T14:20:19.214Z,14.00
2018-03-06T14:22:47.455Z,14.77
2018-03-06T14:25:14.932Z,18.03
2018-03-06T14:27:43.193Z,16.80
2018-03-06T14:30:10.680Z,16.30
2018-03-06T14:32:38.169Z,15.13
2018-03-06T14:35:05.685Z,14.10
2018-03-06T14:37:33.948Z,15.70
2018-03-06T14:40:01.432Z,17.23
2018-03-06T14:42:30.615Z,13.97
2018-03-06T14:44:58.856Z,14.50
2018-03-06T14:47:26.357Z,14.25
2018-03-06T14:49:54.596Z,14.80
2018-03-06T14:52:22.090Z,14.37
2018-03-06T14:54:50.342Z,13.90
2018-03-06T14:57:19.502Z,13.27
2018-03-06T14:59:46.985Z,14.40
2018-03-06T15:02:14.484Z,15.00
2018-03-06T15:04:42.745Z,15.30
2018-03-06T15:07:10.981Z,16.60
2018-03-06T15:09:38.485Z,16.33
2018-03-06T15:12:06.716Z,17.20
2018-03-06T15:14:34.192Z,19.20
2018-03-06T15:17:02.498Z,17.25
2018-03-06T15:22:24.197Z,18.50
2018-03-06T15:24:51.703Z,18.03
2018-03-06T15:27:19.942Z,18.67
2018-03-06T15:29:47.459Z,19.70
2018-03-06T15:32:14.938Z,17.37
2018-03-06T15:34:42.433Z,17.98
2018-03-06T15:37:09.994Z,18.05
2018-03-06T15:39:38.280Z,17.97
2018-03-06T15:42:06.511Z,18.50
2018-03-06T15:44:34.008Z,16.97
2018-03-06T15:47:02.286Z,19.15
2018-03-06T15:49:30.553Z,19.20
2018-03-06T15:51:58.036Z,19.27
2018-03-06T15:54:25.520Z,18.07
2018-03-06T15:56:53.000Z,19.40
2018-03-06T15:59:20.499Z,19.00
2018-03-06T16:01:48.746Z,18.87
2018-03-06T16:04:16.233Z,17.93
2018-03-06T16:06:44.483Z,18.50
2018-03-06T16:09:11.986Z,20.80
2018-03-06T16:11:39.469Z,18.23
2018-03-06T16:14:06.943Z,18.00
2018-03-06T16:16:34.417Z,18.50
2018-03-06T16:19:03.418Z,19.80
2018-03-06T16:21:30.917Z,20.20
2018-03-06T16:23:58.413Z,20.17
2018-03-06T16:26:25.935Z,20.80
2018-03-06T16:28:53.426Z,21.87
2018-03-06T16:31:20.914Z,20.17
2018-03-06T16:33:49.203Z,24.17
2018-03-06T16:36:17.466Z,22.50
2018-03-06T16:38:44.958Z,22.10
2018-03-06T16:41:12.460Z,23.17
2018-03-06T16:43:39.942Z,22.60
2018-03-06T16:46:08.224Z,19.80
2018-03-06T16:48:36.476Z,21.93
2018-03-06T16:51:03.968Z,21.83
2018-03-06T16:53:32.236Z,20.37
2018-03-06T16:56:00.493Z,20.40
2018-03-06T16:58:27.972Z,22.57
2018-03-06T17:00:56.249Z,21.60
2018-03-06T17:03:24.493Z,18.60
2018-03-06T17:05:52.002Z,23.93
2018-03-06T17:08:19.480Z,21.47
2018-03-06T17:10:46.957Z,23.70
2018-03-06T17:13:14.438Z,24.10
2018-03-06T17:15:41.930Z,22.95
2018-03-06T17:18:09.400Z,21.43
2018-03-06T17:20:36.873Z,18.90
2018-03-06T17:23:04.369Z,18.97
2018-03-06T17:25:33.164Z,20.60
2018-03-06T17:28:01.434Z,20.10
2018-03-06T17:30:28.931Z,21.40
2018-03-06T17:32:56.419Z,20.87
2018-03-06T17:35:23.951Z,20.07
2018-03-06T17:37:51.436Z,19.57
2018-03-06T17:40:18.917Z,18.50
2018-03-06T17:42:46.409Z,15.80
2018-03-06T17:45:14.649Z,16.47
2018-03-06T17:47:42.146Z,18.73
2018-03-06T17:50:09.622Z,27.85
2018-03-06T17:52:37.131Z,34.53
2018-03-06T17:55:04.610Z,29.57
2018-03-06T17:57:32.871Z,26.33
2018-03-06T18:00:00.344Z,28.20
2018-03-06T18:02:28.631Z,28.60
2018-03-06T18:04:56.105Z,28.63
2018-03-06T18:07:23.635Z,28.67
2018-03-06T18:09:51.082Z,32.10
2018-03-06T18:12:19.334Z,35.03
2018-03-06T18:14:46.811Z,33.43
2018-03-06T18:17:14.314Z,28.37
2018-03-06T18:19:41.835Z,33.90
2018-03-06T18:22:10.088Z,20.70
2018-03-06T18:24:37.577Z,22.60
2018-03-06T18:27:05.839Z,18.43
2018-03-06T18:29:33.309Z,15.10
2018-03-06T18:32:01.564Z,14.80
2018-03-06T18:34:29.027Z,12.63
2018-03-06T18:36:56.509Z,18.03
2018-03-06T18:39:25.869Z,28.20
2018-03-06T18:41:53.366Z,21.30
2018-03-06T18:44:20.856Z,26.47
2018-03-06T18:46:48.817Z,26.37
2018-03-06T18:49:16.338Z,24.37
2018-03-06T18:51:43.795Z,26.67
2018-03-06T18:54:12.043Z,25.30
2018-03-06T18:56:39.534Z,23.77
2018-03-06T18:59:07.767Z,25.00
2018-03-06T19:01:57.987Z,25.80
2018-03-06T19:04:37.324Z,24.70
2018-03-06T19:07:06.777Z,24.23
2018-03-06T19:09:34.267Z,25.40
2018-03-06T19:12:01.752Z,24.27
2018-03-06T19:14:30.153Z,23.83
2018-03-06T19:16:57.643Z,27.27
2018-03-06T19:19:25.410Z,25.37
2018-03-06T19:21:52.918Z,23.80
2018-03-06T19:24:21.202Z,24.83
2018-03-06T19:26:49.467Z,26.20
2018-03-06T19:29:17.736Z,23.60
2018-03-06T19:31:46.015Z,25.43
2018-03-06T19:34:14.294Z,24.53
2018-03-06T19:36:41.812Z,33.57
2018-03-06T19:39:09.317Z,35.50
2018-03-06T19:41:37.574Z,34.10
2018-03-06T19:44:06.588Z,35.00
2018-03-06T19:46:34.875Z,35.58
2018-03-06T19:49:02.462Z,31.60
2018-03-06T19:51:29.951Z,35.20
2018-03-06T19:53:58.968Z,38.90
2018-03-06T19:56:28.208Z,31.83
2018-03-06T19:58:55.711Z,23.37
2018-03-06T20:01:23.230Z,19.70
2018-03-06T20:03:51.763Z,23.40
2018-03-06T20:06:20.895Z,22.03
2018-03-06T20:08:48.405Z,23.62
2018-03-06T20:11:18.318Z,23.53
2018-03-06T20:13:45.822Z,19.73
2018-03-06T20:16:13.326Z,21.80
2018-03-06T20:18:40.838Z,22.83
2018-03-06T20:21:08.336Z,17.43
2018-03-06T20:23:35.849Z,17.30
2018-03-06T20:26:03.349Z,16.17
2018-03-06T20:28:30.840Z,15.17
2018-03-06T20:31:04.730Z,17.00
2018-03-06T20:33:33.226Z,16.70
2018-03-06T20:36:02.210Z,15.63
2018-03-06T20:38:35.516Z,17.27
2018-03-06T20:41:03.012Z,17.73
2018-03-06T20:43:30.514Z,17.43
2018-03-06T20:46:03.649Z,16.60
2018-03-06T20:48:31.176Z,17.77
2018-03-06T20:50:59.431Z,18.03
2018-03-06T20:53:32.753Z,16.30
2018-03-06T20:56:01.010Z,17.53
2018-03-06T20:58:28.491Z,18.70
2018-03-06T21:00:56.756Z,17.50
2018-03-06T21:03:25.051Z,15.60
2018-03-06T21:05:53.337Z,14.37
2018-03-06T21:08:20.839Z,16.50
2018-03-06T21:10:48.348Z,16.23
2018-03-06T21:13:16.617Z,16.50
2018-03-06T21:15:44.896Z,16.10
2018-03-06T21:18:13.174Z,16.97
2018-03-06T21:20:41.438Z,17.17
2018-03-06T21:23:09.722Z,17.35
2018-03-06T21:25:37.993Z,17.37
2018-03-06T21:28:06.245Z,17.03
2018-03-06T21:30:33.743Z,19.47
2018-03-06T21:33:01.228Z,19.30
2018-03-06T21:35:28.724Z,19.60
2018-03-06T21:37:56.223Z,19.30
2018-03-06T21:40:23.723Z,17.53
2018-03-06T21:42:51.205Z,21.40
2018-03-06T21:45:18.749Z,20.70
2018-03-06T21:47:46.237Z,24.10
2018-03-06T21:50:14.510Z,22.85
2018-03-06T21:52:42.753Z,20.93
2018-03-06T21:55:11.490Z,20.23
2018-03-06T21:57:39.038Z,21.33
2018-03-06T22:00:06.544Z,22.47
2018-03-06T22:02:34.017Z,19.33
2018-03-06T22:05:01.548Z,21.60
2018-03-06T22:07:29.023Z,20.25
2018-03-06T22:09:56.514Z,20.30
2018-03-06T22:12:24.000Z,22.20
2018-03-06T22:14:51.486Z,19.87
2018-03-06T22:17:20.496Z,20.83
2018-03-06T22:19:47.984Z,21.60
2018-03-06T22:22:15.479Z,21.20
2018-03-06T22:24:42.985Z,20.90
2018-03-06T22:27:11.997Z,22.60
2018-03-06T22:29:42.996Z,22.77
2018-03-06T22:32:10.527Z,20.87
2018-03-06T22:34:37.984Z,21.93
2018-03-06T22:37:05.499Z,24.30
2018-03-06T22:39:32.989Z,22.17
2018-03-06T22:42:00.466Z,23.10
2018-03-06T22:44:27.942Z,24.47
2018-03-06T22:46:55.575Z,24.83
2018-03-06T22:49:23.054Z,26.40
2018-03-06T22:51:50.553Z,23.40
2018-03-06T22:54:18.033Z,25.27
2018-03-06T22:56:46.344Z,25.40
2018-03-06T22:59:13.818Z,25.63
2018-03-06T23:01:41.305Z,23.10
2018-03-06T23:04:08.776Z,23.87
2018-03-06T23:06:37.025Z,22.87
2018-03-06T23:09:04.513Z,23.00
2018-03-06T23:11:32.767Z,21.43
2018-03-06T23:14:00.233Z,21.73
2018-03-06T23:16:28.520Z,22.03
2018-03-06T23:18:56.757Z,20.23
2018-03-06T23:21:25.097Z,18.53
2018-03-06T23:23:53.521Z,18.45
2018-03-06T23:26:21.019Z,20.03
2018-03-06T23:28:49.262Z,20.20
2018-03-06T23:31:16.754Z,19.95
2018-03-06T23:33:45.034Z,20.60
2018-03-06T23:36:12.530Z,23.67
2018-03-06T23:38:40.018Z,25.37
2018-03-06T23:41:07.524Z,28.43
2018-03-06T23:43:35.132Z,23.20
2018-03-06T23:46:02.635Z,16.17
2018-03-06T23:48:30.133Z,10.98
2018-03-06T23:50:57.622Z,9.07
2018-03-06T23:53:25.886Z,9.50
2018-03-06T23:55:53.367Z,9.20
2018-03-06T23:58:21.641Z,10.30
